In Rescue
 
Open Full Screen Window  High Contrast Mode
Wind Gusting 17 knots
10
August 21, 2019 1:11 PM CST
Weather Information
Wind Direction
  310 °
Wind Speed
  10 kt (12 mph)
Wind Gust
  17 kt (20 mph)
Altimeter
30.11 in
Visibility
10 SM
Temperature
23° C
73° F
Dewpoint
08° C
46° F
Humidity
38%
1hr Rain Fall
00.00 in.
24hr Rain Fall
00.00 in.
Sky Condition
Clear
VFR

METAR KETH 211911Z AUTO 31010G17KT 10SM CLR 23/08 A3011 RMK AO2

FAA Disclaimer: The data displayed is for advisory purposes only and is not to be used for flight planning or operations.